Time;durP1;ratioP1;P1;durP2;ratioP2;P2;SDS_P1;SDS_P2;PMS_P1;PMS_P2;Temp;Humidity;BMP_temperature;BMP_pressure;BME280_temperature;BME280_humidity;BME280_pressure;Samples;Min_cycle;Max_cycle;Signal;HPM_P1;HPM_P2
2022/10/01 00:01:58;;;;;;;14.15;8.48;;;;;;;10.82;100.00;100315.25;5057541;28;20032;-69
2022/10/01 00:04:26;;;;;;;12.35;8.27;;;;;;;10.83;100.00;100319.63;5051864;28;20622;-67
2022/10/01 00:06:51;;;;;;;11.25;7.68;;;;;;;10.84;100.00;100318.66;5058134;28;20044;-68
2022/10/01 00:09:17;;;;;;;15.07;8.65;;;;;;;10.80;100.00;100315.38;5057883;28;20029;-67
2022/10/01 00:11:42;;;;;;;15.90;8.38;;;;;;;10.79;100.00;100294.13;5047937;28;20828;-68
2022/10/01 00:14:08;;;;;;;12.18;8.38;;;;;;;10.74;100.00;100294.47;5056044;28;20032;-66
2022/10/01 00:16:33;;;;;;;11.52;8.10;;;;;;;10.74;100.00;100282.97;5055973;28;20366;-68
2022/10/01 00:18:59;;;;;;;14.35;8.48;;;;;;;10.76;100.00;100281.06;5036257;28;20568;-69
2022/10/01 00:21:28;;;;;;;12.13;8.20;;;;;;;10.73;100.00;100283.94;5062535;28;20094;-69
2022/10/01 00:23:59;;;;;;;14.60;8.95;;;;;;;10.70;100.00;100266.34;5061305;28;20040;-69
2022/10/01 00:26:27;;;;;;;16.67;8.82;;;;;;;10.73;100.00;100271.44;5044255;28;20040;-69
2022/10/01 00:29:05;;;;;;;13.05;9.07;;;;;;;10.71;100.00;100251.22;5058115;28;20106;-68
2022/10/01 00:31:31;;;;;;;16.65;8.50;;;;;;;10.70;100.00;100249.50;5055683;28;20055;-69
2022/10/01 00:33:59;;;;;;;16.45;9.23;;;;;;;10.67;100.00;100239.06;5049514;28;20482;-69
2022/10/01 00:36:25;;;;;;;10.75;7.82;;;;;;;10.65;100.00;100233.00;5060937;28;20055;-69
2022/10/01 00:38:51;;;;;;;15.52;8.80;;;;;;;10.63;100.00;100239.28;5060574;28;20028;-69
2022/10/01 00:41:17;;;;;;;15.48;8.43;;;;;;;10.68;100.00;100246.09;5043561;28;20440;-69
2022/10/01 00:43:49;;;;;;;13.85;8.63;;;;;;;10.64;100.00;100250.78;5061880;28;20139;-69
2022/10/01 00:46:19;;;;;;;12.95;8.95;;;;;;;10.68;100.00;100243.41;5062191;28;20051;-68
2022/10/01 00:49:05;;;;;;;16.08;9.15;;;;;;;10.61;100.00;100235.03;5057217;28;20037;-69
2022/10/01 00:51:43;;;;;;;15.70;9.80;;;;;;;10.62;100.00;100223.38;5057632;28;20611;-70
2022/10/01 00:54:13;;;;;;;16.23;9.73;;;;;;;10.60;100.00;100218.19;5059501;28;20043;-68
2022/10/01 00:56:40;;;;;;;15.25;10.00;;;;;;;10.60;100.00;100202.19;5053848;28;20109;-70
2022/10/01 00:59:06;;;;;;;20.75;9.23;;;;;;;10.57;100.00;100204.22;5059705;28;20118;-70
2022/10/01 01:01:35;;;;;;;14.93;9.80;;;;;;;10.58;100.00;100197.91;5060860;28;20032;-70
2022/10/01 01:04:01;;;;;;;12.35;9.13;;;;;;;10.57;100.00;100190.88;5056689;28;20048;-69
2022/10/01 01:06:26;;;;;;;17.98;9.05;;;;;;;10.56;100.00;100195.38;5061332;28;20055;-70
2022/10/01 01:08:53;;;;;;;16.88;8.90;;;;;;;10.59;100.00;100205.81;5055206;28;20051;-70
2022/10/01 01:11:46;;;;;;;16.85;9.02;;;;;;;10.52;100.00;100211.69;5055022;28;20051;-69
2022/10/01 01:14:40;;;;;;;16.73;10.18;;;;;;;10.57;100.00;100226.38;5042221;28;20497;-69
2022/10/01 01:17:13;;;;;;;15.25;9.40;;;;;;;10.57;100.00;100233.53;5057665;28;20032;-68
2022/10/01 01:19:57;;;;;;;;;;;;;;;10.59;100.00;100215.59;5059267;28;20040;-69
2022/10/01 01:22:25;;;;;;;16.20;9.82;;;;;;;10.58;100.00;100206.75;5061242;28;19920;-70
2022/10/01 01:25:00;;;;;;;14.98;10.40;;;;;;;10.56;100.00;100202.53;5042560;28;20036;-70
2022/10/01 01:27:34;;;;;;;14.05;10.07;;;;;;;10.51;100.00;100197.53;5059296;28;20120;-70
2022/10/01 01:30:14;;;;;;;14.05;9.77;;;;;;;10.51;100.00;100194.00;5059067;28;20060;-69
2022/10/01 01:32:54;;;;;;;18.88;11.38;;;;;;;10.50;100.00;100166.50;5058615;28;20078;-69
2022/10/01 01:35:31;;;;;;;15.88;10.15;;;;;;;10.51;100.00;100162.03;5051728;28;20835;-70
2022/10/01 01:38:02;;;;;;;14.13;10.80;;;;;;;10.52;100.00;100150.38;5057717;28;20132;-70
2022/10/01 01:40:31;;;;;;;17.63;11.45;;;;;;;10.50;100.00;100126.53;5040327;28;20044;-70
2022/10/01 01:42:58;;;;;;;17.38;10.45;;;;;;;10.47;100.00;100118.75;5057076;28;20556;-68
2022/10/01 01:45:29;;;;;;;15.93;10.18;;;;;;;10.48;100.00;100101.78;5055756;28;20044;-69
2022/10/01 01:47:57;;;;;;;17.40;10.75;;;;;;;10.46;100.00;100100.22;5048652;28;20038;-70
2022/10/01 01:50:25;;;;;;;14.55;10.10;;;;;;;10.48;100.00;100077.78;5056999;28;20761;-69
2022/10/01 01:52:52;;;;;;;19.25;10.32;;;;;;;10.45;100.00;100061.19;5036086;28;20098;-68
2022/10/01 01:55:20;;;;;;;14.43;9.85;;;;;;;10.44;100.00;100073.69;5059157;28;20040;-70
2022/10/01 01:57:46;;;;;;;15.60;9.38;;;;;;;10.44;100.00;100057.69;5058824;28;20046;-69
2022/10/01 02:00:13;;;;;;;13.52;9.48;;;;;;;10.47;100.00;100051.25;5040635;28;20048;-69
2022/10/01 02:02:42;;;;;;;15.45;10.02;;;;;;;10.49;100.00;100054.66;5055647;28;20064;-68
2022/10/01 02:05:14;;;;;;;20.50;11.18;;;;;;;10.49;100.00;100068.84;5059994;28;20094;-70
2022/10/01 02:08:15;;;;;;;13.95;8.93;;;;;;;10.54;100.00;100057.81;5060270;28;20063;-70
2022/10/01 02:11:02;;;;;;;15.80;9.52;;;;;;;10.53;100.00;100054.31;5054392;28;20102;-68
2022/10/01 02:13:49;;;;;;;13.68;7.85;;;;;;;10.52;100.00;100073.94;5054883;28;20127;-69
2022/10/01 02:16:31;;;;;;;18.13;8.48;;;;;;;10.53;100.00;100106.75;5038621;28;20048;-70
2022/10/01 02:19:09;;;;;;;13.65;8.98;;;;;;;10.53;100.00;100094.28;5060199;28;20048;-69
2022/10/01 02:21:57;;;;;;;16.15;9.32;;;;;;;10.61;100.00;100094.56;5059399;28;20055;-70
2022/10/01 02:24:31;;;;;;;19.38;9.32;;;;;;;10.59;100.00;100082.31;5039170;28;20529;-68
2022/10/01 02:27:00;;;;;;;14.60;8.57;;;;;;;10.57;100.00;100062.94;5057434;28;20039;-70
2022/10/01 02:29:27;;;;;;;17.77;8.50;;;;;;;10.58;100.00;100052.13;5059435;28;20085;-69
2022/10/01 02:31:55;;;;;;;12.00;8.48;;;;;;;10.62;100.00;100045.59;5060710;28;20044;-67
2022/10/01 02:34:26;;;;;;;11.93;8.27;;;;;;;10.60;100.00;100054.69;5039494;28;20060;-68
2022/10/01 02:36:54;;;;;;;18.55;8.45;;;;;;;10.59;100.00;100035.19;5059872;28;20561;-68
2022/10/01 02:39:22;;;;;;;16.73;7.70;;;;;;;10.57;100.00;100010.44;5058163;28;21317;-70
2022/10/01 02:41:50;;;;;;;10.77;7.57;;;;;;;10.59;100.00;100018.31;5058956;28;20040;-70
2022/10/01 02:44:21;;;;;;;11.50;7.85;;;;;;;10.57;100.00;100007.78;5059228;28;20849;-70
2022/10/01 02:47:25;;;;;;;12.23;7.60;;;;;;;10.59;100.00;99997.00;5037133;28;20052;-70
2022/10/01 02:49:51;;;;;;;13.65;7.72;;;;;;;10.59;100.00;99989.00;5053696;28;20043;-69
2022/10/01 02:52:41;;;;;;;8.93;6.57;;;;;;;10.61;100.00;99979.09;5060985;28;20041;-69
2022/10/01 02:55:11;;;;;;;10.27;6.35;;;;;;;10.60;100.00;99975.56;5054547;28;20155;-69
2022/10/01 02:57:37;;;;;;;9.68;6.38;;;;;;;10.61;100.00;99979.94;5038342;28;20783;-70
2022/10/01 03:00:10;;;;;;;12.82;6.57;;;;;;;10.59;100.00;99973.88;5060269;28;20051;-70
2022/10/01 03:02:35;;;;;;;9.45;6.10;;;;;;;10.62;100.00;99970.09;5058115;28;20499;-70
2022/10/01 03:05:01;;;;;;;8.80;5.45;;;;;;;10.59;100.00;99965.00;5058895;28;20063;-70
2022/10/01 03:07:30;;;;;;;9.07;5.53;;;;;;;10.59;100.00;99965.88;5058926;28;20075;-69
2022/10/01 03:09:55;;;;;;;8.20;5.63;;;;;;;10.58;100.00;99965.97;5059387;28;20036;-70
2022/10/01 03:12:22;;;;;;;11.02;6.22;;;;;;;10.59;100.00;99943.69;5058502;28;20041;-70
2022/10/01 03:14:48;;;;;;;8.85;5.63;;;;;;;10.61;100.00;99947.09;5052378;28;20033;-69
2022/10/01 03:17:14;;;;;;;6.90;5.47;;;;;;;10.59;100.00;99949.00;5060256;28;20040;-70
2022/10/01 03:19:40;;;;;;;6.72;5.30;;;;;;;10.60;100.00;99954.25;5058905;28;20051;-71
2022/10/01 03:22:06;;;;;;;6.85;4.95;;;;;;;10.59;100.00;99949.88;5054820;28;20044;-68
2022/10/01 03:24:32;;;;;;;6.47;4.72;;;;;;;10.59;100.00;99949.00;5056913;28;20065;-70
2022/10/01 03:26:57;;;;;;;8.65;5.32;;;;;;;10.63;100.00;99939.81;5051947;28;20409;-71
2022/10/01 03:29:24;;;;;;;7.80;4.82;;;;;;;10.63;100.00;99943.31;5055429;28;20416;-70
2022/10/01 03:31:49;;;;;;;7.28;4.93;;;;;;;10.66;100.00;99950.25;5051429;28;20862;-71
2022/10/01 03:34:14;;;;;;;6.47;4.63;;;;;;;10.66;100.00;99941.41;5054940;28;20125;-68
2022/10/01 03:36:40;;;;;;;8.93;4.45;;;;;;;10.68;100.00;99942.13;5051154;28;20119;-70
2022/10/01 03:39:06;;;;;;;6.70;5.40;;;;;;;10.68;100.00;99950.13;5059276;28;20481;-69
2022/10/01 03:41:31;;;;;;;7.10;5.13;;;;;;;10.69;100.00;99941.16;5059212;28;20063;-70
2022/10/01 03:43:56;;;;;;;8.63;4.40;;;;;;;10.68;100.00;99947.44;5060283;28;20143;-69
2022/10/01 03:46:22;;;;;;;6.78;4.65;;;;;;;10.70;100.00;99937.53;5057488;28;20041;-71
2022/10/01 03:48:48;;;;;;;4.70;3.92;;;;;;;10.69;100.00;99941.16;5058895;28;20032;-69
2022/10/01 03:51:14;;;;;;;6.80;4.30;;;;;;;10.70;100.00;99948.19;5054326;28;20037;-69
2022/10/01 03:53:39;;;;;;;6.65;4.95;;;;;;;10.73;100.00;99946.13;5055315;28;20154;-70
2022/10/01 03:56:05;;;;;;;6.32;4.40;;;;;;;10.73;100.00;99946.13;5057424;28;20718;-68
2022/10/01 03:58:30;;;;;;;8.00;5.10;;;;;;;10.75;100.00;99952.19;5063221;28;20079;-69
2022/10/01 04:00:56;;;;;;;6.95;5.13;;;;;;;10.76;100.00;99953.88;5062970;28;20029;-70
2022/10/01 04:03:22;;;;;;;9.43;5.00;;;;;;;10.77;100.00;99963.59;5059534;28;20542;-70
2022/10/01 04:05:48;;;;;;;6.70;4.88;;;;;;;10.76;100.00;99956.56;5060378;28;20135;-70
2022/10/01 04:08:13;;;;;;;6.88;4.47;;;;;;;10.79;100.00;99950.13;5061686;28;20128;-71
2022/10/01 04:10:39;;;;;;;6.65;4.45;;;;;;;10.78;100.00;99943.09;5062757;28;20032;-74
2022/10/01 04:13:05;;;;;;;9.90;5.80;;;;;;;10.82;100.00;99944.56;5062422;28;20508;-70
2022/10/01 04:15:31;;;;;;;6.03;4.20;;;;;;;10.82;100.00;99942.72;5062104;28;20036;-69
2022/10/01 04:17:57;;;;;;;5.55;4.50;;;;;;;10.85;100.00;99960.31;5056203;28;20080;-71
2022/10/01 04:20:23;;;;;;;6.07;4.20;;;;;;;10.85;100.00;99949.66;5063154;28;20036;-70
2022/10/01 04:22:49;;;;;;;4.55;3.50;;;;;;;10.89;100.00;99953.75;5062992;28;20114;-71
2022/10/01 04:25:14;;;;;;;3.95;3.55;;;;;;;10.91;100.00;99959.00;5059510;28;20445;-69
2022/10/01 04:27:41;;;;;;;5.07;3.72;;;;;;;10.91;100.00;99954.50;5061944;28;20102;-70
2022/10/01 04:30:08;;;;;;;6.22;3.72;;;;;;;10.94;100.00;99958.72;5062600;28;20063;-70
2022/10/01 04:32:34;;;;;;;4.78;3.40;;;;;;;10.97;100.00;99954.00;5062713;28;20055;-71
2022/10/01 04:35:02;;;;;;;4.57;3.47;;;;;;;10.99;100.00;99954.72;5062793;28;20041;-70
2022/10/01 04:37:27;;;;;;;4.75;3.20;;;;;;;11.03;100.00;99947.34;5061232;28;20054;-70
2022/10/01 04:39:53;;;;;;;4.60;3.38;;;;;;;11.06;100.00;99950.63;5052799;28;20040;-71
2022/10/01 04:42:20;;;;;;;3.45;2.95;;;;;;;11.07;100.00;99957.66;5062385;28;20457;-69
2022/10/01 04:44:46;;;;;;;4.18;3.00;;;;;;;11.08;100.00;99963.81;5058914;28;20093;-70
2022/10/01 04:47:11;;;;;;;3.38;3.08;;;;;;;11.07;100.00;99944.31;5056810;28;20436;-69
2022/10/01 04:49:37;;;;;;;5.82;3.47;;;;;;;11.10;100.00;99949.41;5042776;28;20029;-70
2022/10/01 04:52:04;;;;;;;7.13;4.20;;;;;;;11.08;100.00;99956.66;5053606;28;20128;-70
2022/10/01 04:54:29;;;;;;;3.83;3.20;;;;;;;11.09;100.00;99957.50;5062571;28;20040;-70
2022/10/01 04:56:56;;;;;;;3.97;3.15;;;;;;;11.12;100.00;99967.94;5062155;28;20488;-70
2022/10/01 04:59:22;;;;;;;4.22;3.70;;;;;;;11.12;100.00;99959.94;5062829;28;20033;-71
2022/10/01 05:01:47;;;;;;;3.75;3.42;;;;;;;11.14;100.00;99958.00;5062526;28;20043;-70
2022/10/01 05:04:13;;;;;;;3.55;3.22;;;;;;;11.15;100.00;99968.56;5062459;28;20039;-70
2022/10/01 05:06:40;;;;;;;5.38;3.13;;;;;;;11.19;100.00;99969.16;5059958;28;20168;-70
2022/10/01 05:09:05;;;;;;;3.28;2.90;;;;;;;11.21;100.00;99971.72;5050847;28;20044;-69
2022/10/01 05:11:31;;;;;;;3.10;2.80;;;;;;;11.22;100.00;99978.75;5043571;28;20028;-70
2022/10/01 05:13:56;;;;;;;9.30;3.30;;;;;;;11.23;100.00;99967.94;5059798;28;20385;-70
2022/10/01 05:16:22;;;;;;;3.55;3.05;;;;;;;11.28;100.00;99962.22;5057547;28;20033;-70
2022/10/01 05:18:47;;;;;;;3.65;2.92;;;;;;;11.26;100.00;99969.53;5060341;28;20435;-69
2022/10/01 05:21:14;;;;;;;3.67;3.10;;;;;;;11.31;100.00;99975.34;5062701;28;20684;-70
2022/10/01 05:23:40;;;;;;;3.47;2.80;;;;;;;11.31;100.00;99988.69;5059262;28;20076;-69
2022/10/01 05:26:07;;;;;;;3.75;3.38;;;;;;;11.36;100.00;99991.84;5061604;28;20716;-69
2022/10/01 05:28:33;;;;;;;3.50;2.95;;;;;;;11.35;100.00;99984.81;5061309;28;20024;-70
2022/10/01 05:31:02;;;;;;;3.72;2.85;;;;;;;11.40;100.00;99988.81;5056951;28;20044;-69
2022/10/01 05:33:29;;;;;;;6.50;2.80;;;;;;;11.44;100.00;99999.22;5058620;28;20090;-70
2022/10/01 05:35:56;;;;;;;3.90;2.85;;;;;;;11.49;100.00;100003.19;5038215;28;20047;-69
2022/10/01 05:38:22;;;;;;;3.67;2.90;;;;;;;11.46;100.00;100002.63;5063517;28;20036;-69
2022/10/01 05:40:48;;;;;;;4.45;2.97;;;;;;;11.49;100.00;100016.56;5057585;28;20036;-70
2022/10/01 05:43:14;;;;;;;3.67;3.38;;;;;;;11.47;100.00;100004.31;5061281;28;20098;-70
2022/10/01 05:45:40;;;;;;;7.22;3.20;;;;;;;11.54;100.00;100027.72;5057009;28;20045;-69
2022/10/01 05:48:07;;;;;;;5.10;3.30;;;;;;;11.53;100.00;100031.34;5057669;28;20056;-68
2022/10/01 05:50:38;;;;;;;3.50;3.20;;;;;;;11.57;100.00;100032.81;5038861;28;20037;-70
2022/10/01 05:53:05;;;;;;;4.65;3.38;;;;;;;11.56;100.00;100028.44;5059740;28;20064;-69
2022/10/01 05:55:32;;;;;;;5.28;3.78;;;;;;;11.60;100.00;100035.25;5050745;28;20056;-68
2022/10/01 05:58:00;;;;;;;5.25;3.38;;;;;;;11.63;100.00;100042.16;5036910;28;20040;-69
2022/10/01 06:00:29;;;;;;;4.00;3.25;;;;;;;11.58;100.00;100039.00;5056932;28;20503;-68
2022/10/01 06:02:59;;;;;;;10.20;3.72;;;;;;;11.60;100.00;100037.06;5059886;28;20064;-68
2022/10/01 06:05:26;;;;;;;3.80;3.30;;;;;;;11.65;100.00;100046.41;5049193;28;20048;-68
2022/10/01 06:07:52;;;;;;;5.82;3.70;;;;;;;11.64;100.00;100039.34;5056953;28;20025;-69
2022/10/01 06:10:18;;;;;;;5.28;4.07;;;;;;;11.68;100.00;100039.97;5057475;28;20033;-68
2022/10/01 06:12:44;;;;;;;6.22;4.28;;;;;;;11.72;100.00;100046.75;5057816;28;20032;-70
2022/10/01 06:15:11;;;;;;;5.82;3.92;;;;;;;11.76;100.00;100045.53;5054119;28;20040;-69
2022/10/01 06:17:42;;;;;;;4.35;3.45;;;;;;;11.76;100.00;100040.19;5058732;28;21002;-69
2022/10/01 06:20:11;;;;;;;10.20;4.10;;;;;;;11.84;100.00;100047.59;5056112;28;20048;-70
2022/10/01 06:22:37;;;;;;;5.72;4.13;;;;;;;11.85;100.00;100047.50;5058003;28;20982;-70
2022/10/01 06:25:04;;;;;;;4.88;3.90;;;;;;;11.90;100.00;100055.16;5056912;28;20036;-70
2022/10/01 06:27:29;;;;;;;8.35;4.38;;;;;;;11.89;100.00;100050.75;5039387;28;20715;-69
2022/10/01 06:29:55;;;;;;;7.60;4.38;;;;;;;11.96;100.00;100059.13;5057419;28;20072;-69
2022/10/01 06:32:20;;;;;;;6.45;4.47;;;;;;;11.96;100.00;100061.81;5032265;28;20044;-68
2022/10/01 06:34:45;;;;;;;10.35;4.53;;;;;;;12.01;100.00;100057.78;5060135;28;20040;-68
2022/10/01 06:37:11;;;;;;;9.10;4.95;;;;;;;12.06;100.00;100060.91;5057267;28;20056;-69
2022/10/01 06:39:36;;;;;;;5.43;4.60;;;;;;;12.14;100.00;100054.94;5057869;28;20043;-71
2022/10/01 06:42:02;;;;;;;8.23;5.38;;;;;;;12.17;100.00;100068.06;5054703;28;20797;-69
2022/10/01 06:44:27;;;;;;;8.45;4.90;;;;;;;12.23;100.00;100061.34;5059237;28;20036;-68
2022/10/01 06:46:53;;;;;;;8.70;4.88;;;;;;;12.32;100.00;100071.28;5036216;28;20032;-70
2022/10/01 06:49:20;;;;;;;10.73;5.43;;;;;;;12.50;100.00;100074.22;5060496;28;20036;-70
2022/10/01 06:54:30;;;;;;;9.80;6.07;;;;;;;12.60;100.00;100072.47;5056784;28;20041;-71
2022/10/01 06:56:55;;;;;;;9.00;5.38;;;;;;;12.70;100.00;100076.94;5057628;28;20074;-69
2022/10/01 06:59:21;;;;;;;8.10;6.13;;;;;;;12.93;100.00;100082.16;5060354;28;20047;-68
2022/10/01 07:01:49;;;;;;;9.63;5.78;;;;;;;12.95;100.00;100080.19;5053773;28;20033;-67
2022/10/01 07:04:15;;;;;;;9.63;5.63;;;;;;;13.02;100.00;100075.19;5039734;28;20376;-71
2022/10/01 07:06:40;;;;;;;10.13;6.10;;;;;;;13.17;100.00;100079.22;5057688;28;20041;-69
2022/10/01 07:09:06;;;;;;;9.32;5.93;;;;;;;13.39;100.00;100079.06;5060401;28;20036;-69
2022/10/01 07:11:31;;;;;;;10.13;6.65;;;;;;;13.73;100.00;100074.25;5060525;28;20036;-68
2022/10/01 07:13:56;;;;;;;8.35;6.57;;;;;;;13.97;100.00;100073.91;5040070;28;20033;-70
2022/10/01 07:16:22;;;;;;;9.80;7.05;;;;;;;13.71;100.00;100078.91;5055736;28;20045;-69
2022/10/01 07:18:47;;;;;;;11.75;6.22;;;;;;;14.09;100.00;100088.03;5058793;28;20048;-69
2022/10/01 07:21:13;;;;;;;8.40;6.20;;;;;;;14.40;100.00;100075.34;5053907;28;20041;-70
2022/10/01 07:23:38;;;;;;;11.27;6.10;;;;;;;14.24;100.00;100078.59;5035581;28;20040;-70
2022/10/01 07:26:07;;;;;;;12.82;6.20;;;;;;;14.47;100.00;100075.66;5055854;28;20044;-68
2022/10/01 07:28:33;;;;;;;7.43;6.22;;;;;;;14.65;100.00;100075.81;5033409;28;20568;-69
2022/10/01 07:31:11;;;;;;;8.15;6.60;;;;;;;14.89;100.00;100078.06;5056747;28;20036;-70
2022/10/01 07:33:37;;;;;;;18.80;6.35;;;;;;;14.65;100.00;100083.88;5053656;28;21921;-69
2022/10/01 07:36:05;;;;;;;7.93;6.43;;;;;;;14.63;100.00;100094.75;5033465;28;20482;-70
2022/10/01 07:38:32;;;;;;;11.40;7.13;;;;;;;14.43;100.00;100104.59;5037381;28;20078;-69
2022/10/01 07:40:57;;;;;;;9.63;7.03;;;;;;;14.35;100.00;100107.13;5057730;28;20054;-67
2022/10/01 07:43:23;;;;;;;11.27;7.25;;;;;;;14.41;100.00;100113.78;5055861;28;20037;-69
2022/10/01 07:45:51;;;;;;;7.90;7.10;;;;;;;14.33;100.00;100114.47;5059126;28;20109;-70
2022/10/01 07:48:18;;;;;;;10.32;7.47;;;;;;;14.33;100.00;100110.94;5058774;28;20037;-71
2022/10/01 07:50:44;;;;;;;12.50;7.75;;;;;;;14.46;100.00;100112.38;5059216;28;20037;-71
2022/10/01 07:53:10;;;;;;;19.30;8.52;;;;;;;14.50;100.00;100124.53;5055755;28;20438;-70
2022/10/01 07:55:36;;;;;;;15.75;8.60;;;;;;;14.51;100.00;100128.09;5057637;28;20036;-69
2022/10/01 07:58:02;;;;;;;12.55;8.55;;;;;;;14.54;100.00;100130.47;5056535;28;20045;-69
2022/10/01 08:00:30;;;;;;;14.10;9.10;;;;;;;14.73;100.00;100141.22;5036040;28;20036;-70
2022/10/01 08:02:55;;;;;;;13.13;8.75;;;;;;;14.51;100.00;100141.50;5049164;28;20033;-70
2022/10/01 08:05:29;;;;;;;15.75;9.15;;;;;;;14.75;100.00;100135.69;5057288;28;20043;-68
2022/10/01 08:08:05;;;;;;;14.30;9.55;;;;;;;14.73;100.00;100137.69;5054274;28;20799;-70
2022/10/01 08:10:35;;;;;;;14.88;10.18;;;;;;;14.47;100.00;100151.66;5058414;28;20958;-70
2022/10/01 08:13:07;;;;;;;16.52;9.25;;;;;;;14.90;100.00;100152.22;5054593;28;20060;-69
2022/10/01 08:15:33;;;;;;;;;;;;;;;15.23;100.00;100159.84;5052961;28;20133;-71
2022/10/01 08:18:03;;;;;;;13.30;8.50;;;;;;;15.07;100.00;100161.41;5039083;28;20033;-71
2022/10/01 08:20:29;;;;;;;12.25;9.50;;;;;;;15.01;100.00;100168.22;5054403;28;20388;-68
2022/10/01 08:23:01;;;;;;;14.82;9.93;;;;;;;14.93;100.00;100165.38;5055255;28;20607;-71
2022/10/01 08:25:26;;;;;;;14.60;10.05;;;;;;;14.93;100.00;100160.84;5046883;28;20037;-70
2022/10/01 08:27:52;;;;;;;18.45;9.77;;;;;;;15.12;100.00;100168.06;5056929;28;20028;-68
2022/10/01 08:30:18;;;;;;;13.55;9.70;;;;;;;15.18;100.00;100170.16;5049862;28;20044;-70
2022/10/01 08:32:43;;;;;;;16.80;9.57;;;;;;;15.25;100.00;100162.38;5057349;28;20047;-69
2022/10/01 08:35:09;;;;;;;20.15;10.15;;;;;;;15.10;100.00;100161.97;5052082;28;20048;-66
2022/10/01 08:37:34;;;;;;;14.77;10.30;;;;;;;15.10;100.00;100166.47;5038320;28;20055;-68
2022/10/01 08:40:00;;;;;;;18.85;10.50;;;;;;;14.93;100.00;100168.91;5057484;28;20036;-69
2022/10/01 08:42:37;;;;;;;15.80;10.18;;;;;;;14.93;100.00;100174.28;5055743;28;20040;-70
2022/10/01 08:45:13;;;;;;;20.33;11.23;;;;;;;14.85;100.00;100175.97;5057866;28;20036;-68
2022/10/01 08:47:44;;;;;;;18.58;10.38;;;;;;;14.83;100.00;100178.78;5058813;28;20048;-67
2022/10/01 08:50:31;;;;;;;17.98;11.05;;;;;;;15.00;100.00;100169.19;5056738;28;20056;-66
2022/10/01 08:53:00;;;;;;;22.52;10.88;;;;;;;14.66;100.00;100168.75;5057417;28;20069;-69
2022/10/01 08:55:35;;;;;;;32.55;12.40;;;;;;;14.48;100.00;100174.81;5059681;28;20386;-68
2022/10/01 08:58:04;;;;;;;24.30;13.35;;;;;;;14.19;100.00;100182.75;5059171;28;20071;-69
2022/10/01 09:00:32;;;;;;;21.85;12.93;;;;;;;14.11;100.00;100196.00;5061368;28;20040;-69
2022/10/01 09:03:03;;;;;;;19.70;12.30;;;;;;;14.05;100.00;100199.19;5061285;28;20044;-67
2022/10/01 09:06:17;;;;;;;22.58;12.43;;;;;;;14.45;100.00;100193.81;5061699;28;20046;-68
2022/10/01 09:08:48;;;;;;;19.20;12.80;;;;;;;15.55;100.00;100197.09;5039475;28;20052;-68
2022/10/01 09:11:43;;;;;;;18.73;13.35;;;;;;;16.12;100.00;100199.78;5055673;28;20036;-68
2022/10/01 09:14:20;;;;;;;20.50;12.77;;;;;;;16.67;100.00;100201.59;5059901;28;20075;-68
2022/10/01 09:17:03;;;;;;;16.05;11.35;;;;;;;16.49;100.00;100204.25;5058820;28;20031;-68
2022/10/01 09:19:45;;;;;;;18.98;12.10;;;;;;;15.64;100.00;100214.22;5040740;28;20148;-71
2022/10/01 09:22:47;;;;;;;24.27;12.20;;;;;;;15.60;100.00;100223.53;5063537;28;20042;-71
2022/10/01 09:25:22;;;;;;;22.08;11.65;;;;;;;15.03;100.00;100230.66;5065717;28;20142;-72
2022/10/01 09:27:50;;;;;;;19.95;12.63;;;;;;;14.86;100.00;100229.53;5060311;28;20047;-72
2022/10/01 09:30:20;;;;;;;18.00;11.27;;;;;;;14.74;100.00;100223.41;5062538;28;20052;-72
2022/10/01 09:32:57;;;;;;;20.60;11.48;;;;;;;14.64;100.00;100227.94;5042564;28;20047;-71
2022/10/01 09:35:32;;;;;;;22.25;12.52;;;;;;;14.83;100.00;100237.84;5063227;28;20123;-73
2022/10/01 09:38:05;;;;;;;16.02;10.50;;;;;;;15.27;100.00;100233.78;5064735;28;20223;-71
2022/10/01 09:40:53;;;;;;;15.07;9.38;;;;;;;15.89;100.00;100228.88;5066172;28;20032;-74
2022/10/01 09:43:22;;;;;;;16.77;10.05;;;;;;;15.91;100.00;100237.63;5062730;28;20038;-73
2022/10/01 09:45:50;;;;;;;15.07;9.98;;;;;;;15.57;100.00;100234.59;5066860;28;20071;-72
2022/10/01 09:48:35;;;;;;;16.92;10.02;;;;;;;15.22;100.00;100246.78;5062048;28;20036;-70
2022/10/01 09:51:47;;;;;;;18.20;10.65;;;;;;;15.00;100.00;100241.66;5060560;28;20805;-73
2022/10/01 09:54:20;;;;;;;16.80;10.68;;;;;;;14.99;100.00;100242.66;5060854;28;20032;-73
2022/10/01 09:56:49;;;;;;;18.20;10.13;;;;;;;14.81;100.00;100241.66;5041823;28;20465;-71
2022/10/01 09:59:23;;;;;;;22.48;9.27;;;;;;;14.52;100.00;100249.66;5044315;28;20085;-72
2022/10/01 10:02:00;;;;;;;13.55;6.82;;;;;;;14.57;100.00;100250.09;5056706;28;20173;-72
2022/10/01 10:04:26;;;;;;;13.57;8.20;;;;;;;14.83;100.00;100253.97;5060964;28;20100;-72
2022/10/01 10:07:01;;;;;;;15.27;8.52;;;;;;;15.15;100.00;100252.84;5058609;28;20925;-72
2022/10/01 10:09:32;;;;;;;13.65;7.30;;;;;;;15.65;100.00;100258.06;5064157;28;20047;-70
2022/10/01 10:11:58;;;;;;;11.15;7.07;;;;;;;15.98;100.00;100256.72;5052188;28;20497;-71
2022/10/01 10:14:31;;;;;;;12.48;7.00;;;;;;;16.85;100.00;100258.16;5064631;28;20622;-71
2022/10/01 10:16:57;;;;;;;10.45;5.60;;;;;;;16.73;100.00;100271.00;5063981;28;20045;-71
2022/10/01 10:19:26;;;;;;;15.10;4.45;;;;;;;16.33;100.00;100261.41;5062759;28;20059;-72
2022/10/01 10:22:07;;;;;;;5.88;3.03;;;;;;;15.73;100.00;100267.13;5061057;28;20125;-71
2022/10/01 10:24:34;;;;;;;9.18;3.22;;;;;;;15.47;100.00;100261.47;5056597;28;20051;-71
2022/10/01 10:27:02;;;;;;;7.85;2.78;;;;;;;15.35;100.00;100269.81;5058330;28;20078;-70
2022/10/01 10:29:34;;;;;;;7.90;2.30;;;;;;;15.30;100.00;100272.91;5058819;28;20036;-72
2022/10/01 10:32:10;;;;;;;8.65;2.58;;;;;;;15.58;100.00;100273.06;5058592;28;20045;-72
2022/10/01 10:34:39;;;;;;;7.13;2.20;;;;;;;15.72;100.00;100276.19;5030861;28;20037;-70
2022/10/01 10:37:14;;;;;;;10.50;2.70;;;;;;;15.84;100.00;100273.31;5058825;28;20064;-70
2022/10/01 10:39:45;;;;;;;10.48;2.40;;;;;;;15.93;100.00;100283.22;5056555;28;20040;-72
2022/10/01 10:42:17;;;;;;;10.15;2.50;;;;;;;16.28;100.00;100280.69;5063344;28;20028;-70
2022/10/01 10:44:48;;;;;;;14.13;2.47;;;;;;;16.57;100.00;100277.03;5062219;28;20060;-70
2022/10/01 10:47:15;;;;;;;12.75;2.30;;;;;;;16.93;100.00;100280.66;5059322;28;20048;-73
2022/10/01 10:49:49;;;;;;;10.52;2.55;;;;;;;17.43;100.00;100288.22;5060030;28;20032;-71
2022/10/01 10:52:39;;;;;;;9.63;2.08;;;;;;;17.59;100.00;100299.13;5039963;28;20043;-73
2022/10/01 10:55:29;;;;;;;9.32;1.90;;;;;;;17.34;100.00;100294.53;5063966;28;20052;-71
2022/10/01 10:58:15;;;;;;;11.18;1.95;;;;;;;17.92;100.00;100301.25;5055796;28;20131;-72
2022/10/01 11:00:48;;;;;;;8.20;1.85;;;;;;;17.43;100.00;100306.25;5055352;28;20086;-72
2022/10/01 11:03:18;;;;;;;9.23;2.13;;;;;;;17.58;100.00;100296.59;5057696;28;20044;-71
2022/10/01 11:05:44;;;;;;;11.45;2.47;;;;;;;17.46;100.00;100308.63;5058278;28;20044;-72
2022/10/01 11:08:19;;;;;;;10.25;2.30;;;;;;;16.86;100.00;100309.19;5058775;28;20054;-72
2022/10/01 11:11:12;;;;;;;10.15;2.17;;;;;;;16.45;100.00;100310.50;5041225;28;20810;-72
2022/10/01 11:14:02;;;;;;;9.40;3.40;;;;;;;16.14;100.00;100321.50;5058614;28;20040;-71
2022/10/01 11:16:46;;;;;;;12.85;2.60;;;;;;;15.73;100.00;100320.03;5060405;28;20068;-71
2022/10/01 11:19:14;;;;;;;13.93;2.90;;;;;;;15.53;100.00;100325.38;5056621;28;20055;-73
2022/10/01 11:21:54;;;;;;;18.05;2.72;;;;;;;15.29;100.00;100322.28;5057861;28;20056;-72
2022/10/01 11:24:38;;;;;;;9.05;2.20;;;;;;;15.09;100.00;100339.34;5056095;28;20029;-72
2022/10/01 11:27:19;;;;;;;15.57;2.13;;;;;;;14.86;100.00;100336.91;5057825;28;20052;-73
2022/10/01 11:30:08;;;;;;;16.20;1.98;;;;;;;14.83;100.00;100355.13;5060024;28;20095;-72
2022/10/01 11:32:59;;;;;;;13.95;2.00;;;;;;;14.68;100.00;100357.31;5058222;28;20036;-72